sensor_id;sensor_type;location;lat;lon;timestamp;P1;durP1;ratioP1;P2;durP2;ratioP2
75990;SDS011;64673;52.276;10.560;2022-12-07T00:00:25;27.60;;;9.80;;
75990;SDS011;64673;52.276;10.560;2022-12-07T00:02:50;25.33;;;10.23;;
75990;SDS011;64673;52.276;10.560;2022-12-07T00:05:15;23.27;;;9.53;;
75990;SDS011;64673;52.276;10.560;2022-12-07T00:07:40;27.92;;;10.73;;
75990;SDS011;64673;52.276;10.560;2022-12-07T00:10:06;25.33;;;8.85;;
75990;SDS011;64673;52.276;10.560;2022-12-07T00:12:31;24.50;;;9.45;;
75990;SDS011;64673;52.276;10.560;2022-12-07T00:14:57;21.63;;;9.25;;
75990;SDS011;64673;52.276;10.560;2022-12-07T00:17:22;22.63;;;9.65;;
75990;SDS011;64673;52.276;10.560;2022-12-07T00:19:47;26.10;;;9.38;;
75990;SDS011;64673;52.276;10.560;2022-12-07T00:22:13;26.00;;;10.23;;
75990;SDS011;64673;52.276;10.560;2022-12-07T00:24:38;23.45;;;10.10;;
75990;SDS011;64673;52.276;10.560;2022-12-07T00:27:03;19.10;;;9.20;;
75990;SDS011;64673;52.276;10.560;2022-12-07T00:29:28;22.83;;;9.43;;
75990;SDS011;64673;52.276;10.560;2022-12-07T00:31:54;23.25;;;9.15;;
75990;SDS011;64673;52.276;10.560;2022-12-07T00:34:20;24.02;;;10.18;;
75990;SDS011;64673;52.276;10.560;2022-12-07T00:36:46;25.30;;;10.18;;
75990;SDS011;64673;52.276;10.560;2022-12-07T00:39:11;23.15;;;9.50;;
75990;SDS011;64673;52.276;10.560;2022-12-07T00:41:37;25.80;;;9.82;;
75990;SDS011;64673;52.276;10.560;2022-12-07T00:44:02;23.90;;;10.30;;
75990;SDS011;64673;52.276;10.560;2022-12-07T00:46:28;29.45;;;10.85;;
75990;SDS011;64673;52.276;10.560;2022-12-07T00:48:54;22.42;;;9.82;;
75990;SDS011;64673;52.276;10.560;2022-12-07T00:51:21;30.15;;;10.48;;
75990;SDS011;64673;52.276;10.560;2022-12-07T00:53:48;26.92;;;11.18;;
75990;SDS011;64673;52.276;10.560;2022-12-07T00:56:14;28.85;;;11.70;;
75990;SDS011;64673;52.276;10.560;2022-12-07T00:58:48;26.55;;;10.55;;
75990;SDS011;64673;52.276;10.560;2022-12-07T01:01:15;25.13;;;10.77;;
75990;SDS011;64673;52.276;10.560;2022-12-07T01:03:40;33.45;;;11.13;;
75990;SDS011;64673;52.276;10.560;2022-12-07T01:06:06;29.98;;;12.82;;
75990;SDS011;64673;52.276;10.560;2022-12-07T01:08:31;31.23;;;11.85;;
75990;SDS011;64673;52.276;10.560;2022-12-07T01:10:57;28.45;;;12.73;;
75990;SDS011;64673;52.276;10.560;2022-12-07T01:13:28;32.13;;;12.15;;
75990;SDS011;64673;52.276;10.560;2022-12-07T01:15:56;27.17;;;12.13;;
75990;SDS011;64673;52.276;10.560;2022-12-07T01:18:24;35.90;;;11.80;;
75990;SDS011;64673;52.276;10.560;2022-12-07T01:21:09;31.13;;;12.30;;
75990;SDS011;64673;52.276;10.560;2022-12-07T01:23:37;33.83;;;11.63;;
75990;SDS011;64673;52.276;10.560;2022-12-07T01:26:05;37.67;;;13.13;;
75990;SDS011;64673;52.276;10.560;2022-12-07T01:28:32;34.90;;;13.07;;
75990;SDS011;64673;52.276;10.560;2022-12-07T01:31:02;35.35;;;12.73;;
75990;SDS011;64673;52.276;10.560;2022-12-07T01:33:30;38.28;;;12.45;;
75990;SDS011;64673;52.276;10.560;2022-12-07T01:38:34;35.83;;;13.70;;
75990;SDS011;64673;52.276;10.560;2022-12-07T01:40:59;33.00;;;12.45;;
75990;SDS011;64673;52.276;10.560;2022-12-07T01:43:26;37.33;;;14.02;;
75990;SDS011;64673;52.276;10.560;2022-12-07T01:45:54;35.75;;;13.25;;
75990;SDS011;64673;52.276;10.560;2022-12-07T01:48:26;38.22;;;13.90;;
75990;SDS011;64673;52.276;10.560;2022-12-07T01:50:56;36.63;;;12.85;;
75990;SDS011;64673;52.276;10.560;2022-12-07T01:53:26;39.78;;;14.30;;
75990;SDS011;64673;52.276;10.560;2022-12-07T01:55:54;40.92;;;14.45;;
75990;SDS011;64673;52.276;10.560;2022-12-07T01:58:21;40.63;;;14.10;;
75990;SDS011;64673;52.276;10.560;2022-12-07T02:00:47;39.20;;;14.13;;
75990;SDS011;64673;52.276;10.560;2022-12-07T02:03:20;46.70;;;14.93;;
75990;SDS011;64673;52.276;10.560;2022-12-07T02:05:49;43.33;;;14.85;;
75990;SDS011;64673;52.276;10.560;2022-12-07T02:08:16;43.35;;;15.23;;
75990;SDS011;64673;52.276;10.560;2022-12-07T02:10:42;43.03;;;15.35;;
75990;SDS011;64673;52.276;10.560;2022-12-07T02:13:12;39.15;;;13.52;;
75990;SDS011;64673;52.276;10.560;2022-12-07T02:15:47;36.70;;;14.20;;
75990;SDS011;64673;52.276;10.560;2022-12-07T02:26:48;32.47;;;12.02;;
75990;SDS011;64673;52.276;10.560;2022-12-07T02:29:42;37.45;;;12.82;;
75990;SDS011;64673;52.276;10.560;2022-12-07T02:32:25;35.63;;;11.80;;
75990;SDS011;64673;52.276;10.560;2022-12-07T02:35:04;36.42;;;12.07;;
75990;SDS011;64673;52.276;10.560;2022-12-07T02:39:59;34.83;;;12.97;;
75990;SDS011;64673;52.276;10.560;2022-12-07T02:42:33;37.15;;;12.77;;
75990;SDS011;64673;52.276;10.560;2022-12-07T02:45:03;39.65;;;12.75;;
75990;SDS011;64673;52.276;10.560;2022-12-07T02:47:31;33.72;;;12.18;;
75990;SDS011;64673;52.276;10.560;2022-12-07T02:49:59;40.05;;;12.93;;
75990;SDS011;64673;52.276;10.560;2022-12-07T02:54:52;38.07;;;12.97;;
75990;SDS011;64673;52.276;10.560;2022-12-07T03:07:59;35.58;;;12.65;;
75990;SDS011;64673;52.276;10.560;2022-12-07T03:13:22;36.55;;;12.68;;
75990;SDS011;64673;52.276;10.560;2022-12-07T03:18:23;37.03;;;12.55;;
75990;SDS011;64673;52.276;10.560;2022-12-07T03:20:52;33.05;;;12.68;;
75990;SDS011;64673;52.276;10.560;2022-12-07T03:23:20;28.67;;;12.30;;
75990;SDS011;64673;52.276;10.560;2022-12-07T03:25:49;35.90;;;12.98;;
75990;SDS011;64673;52.276;10.560;2022-12-07T03:28:18;33.65;;;12.25;;
75990;SDS011;64673;52.276;10.560;2022-12-07T03:30:49;34.10;;;12.35;;
75990;SDS011;64673;52.276;10.560;2022-12-07T03:33:22;28.63;;;12.10;;
75990;SDS011;64673;52.276;10.560;2022-12-07T03:35:59;24.42;;;11.18;;
75990;SDS011;64673;52.276;10.560;2022-12-07T03:38:37;30.17;;;12.70;;
75990;SDS011;64673;52.276;10.560;2022-12-07T03:41:27;28.10;;;12.48;;
75990;SDS011;64673;52.276;10.560;2022-12-07T03:43:58;30.70;;;11.73;;
75990;SDS011;64673;52.276;10.560;2022-12-07T03:49:13;29.73;;;12.40;;
75990;SDS011;64673;52.276;10.560;2022-12-07T03:51:49;30.25;;;12.63;;
75990;SDS011;64673;52.276;10.560;2022-12-07T03:54:37;28.85;;;11.73;;
75990;SDS011;64673;52.276;10.560;2022-12-07T03:57:11;26.70;;;11.02;;
75990;SDS011;64673;52.276;10.560;2022-12-07T03:59:38;29.83;;;11.57;;
75990;SDS011;64673;52.276;10.560;2022-12-07T04:02:05;24.58;;;10.85;;
75990;SDS011;64673;52.276;10.560;2022-12-07T04:04:32;27.30;;;10.50;;
75990;SDS011;64673;52.276;10.560;2022-12-07T04:06:59;31.33;;;12.23;;
75990;SDS011;64673;52.276;10.560;2022-12-07T04:09:24;26.15;;;11.48;;
75990;SDS011;64673;52.276;10.560;2022-12-07T04:11:50;26.15;;;11.02;;
75990;SDS011;64673;52.276;10.560;2022-12-07T04:14:16;24.52;;;10.18;;
75990;SDS011;64673;52.276;10.560;2022-12-07T04:16:53;27.02;;;11.77;;
75990;SDS011;64673;52.276;10.560;2022-12-07T04:19:27;31.15;;;10.82;;
75990;SDS011;64673;52.276;10.560;2022-12-07T04:21:55;23.42;;;9.93;;
75990;SDS011;64673;52.276;10.560;2022-12-07T04:24:21;23.33;;;10.00;;
75990;SDS011;64673;52.276;10.560;2022-12-07T04:26:47;22.88;;;9.98;;
75990;SDS011;64673;52.276;10.560;2022-12-07T04:29:13;22.58;;;9.85;;
75990;SDS011;64673;52.276;10.560;2022-12-07T04:31:39;25.50;;;9.98;;
75990;SDS011;64673;52.276;10.560;2022-12-07T04:34:05;24.58;;;9.85;;
75990;SDS011;64673;52.276;10.560;2022-12-07T04:36:31;21.63;;;9.55;;
75990;SDS011;64673;52.276;10.560;2022-12-07T04:38:57;26.17;;;9.45;;
75990;SDS011;64673;52.276;10.560;2022-12-07T04:41:22;22.52;;;9.30;;
75990;SDS011;64673;52.276;10.560;2022-12-07T04:43:55;21.50;;;9.43;;
75990;SDS011;64673;52.276;10.560;2022-12-07T04:46:25;23.88;;;10.25;;
75990;SDS011;64673;52.276;10.560;2022-12-07T04:48:51;20.30;;;9.10;;
75990;SDS011;64673;52.276;10.560;2022-12-07T04:51:19;21.05;;;9.02;;
75990;SDS011;64673;52.276;10.560;2022-12-07T04:53:46;22.02;;;9.30;;
75990;SDS011;64673;52.276;10.560;2022-12-07T04:56:11;21.83;;;8.52;;
75990;SDS011;64673;52.276;10.560;2022-12-07T04:58:36;20.33;;;7.85;;
75990;SDS011;64673;52.276;10.560;2022-12-07T05:01:02;19.05;;;8.52;;
75990;SDS011;64673;52.276;10.560;2022-12-07T05:03:27;20.73;;;8.25;;
75990;SDS011;64673;52.276;10.560;2022-12-07T05:05:52;18.92;;;7.57;;
75990;SDS011;64673;52.276;10.560;2022-12-07T05:08:18;18.80;;;8.48;;
75990;SDS011;64673;52.276;10.560;2022-12-07T05:10:43;22.70;;;8.93;;
75990;SDS011;64673;52.276;10.560;2022-12-07T05:13:09;21.88;;;8.35;;
75990;SDS011;64673;52.276;10.560;2022-12-07T05:15:34;22.25;;;7.68;;
75990;SDS011;64673;52.276;10.560;2022-12-07T05:17:59;16.90;;;6.88;;
75990;SDS011;64673;52.276;10.560;2022-12-07T05:20:25;19.55;;;6.50;;
75990;SDS011;64673;52.276;10.560;2022-12-07T05:22:50;19.13;;;7.15;;
75990;SDS011;64673;52.276;10.560;2022-12-07T05:25:15;16.27;;;5.68;;
75990;SDS011;64673;52.276;10.560;2022-12-07T05:27:41;16.65;;;6.15;;
75990;SDS011;64673;52.276;10.560;2022-12-07T05:30:06;17.85;;;7.72;;
75990;SDS011;64673;52.276;10.560;2022-12-07T05:32:32;15.80;;;6.90;;
75990;SDS011;64673;52.276;10.560;2022-12-07T05:34:57;15.85;;;7.13;;
75990;SDS011;64673;52.276;10.560;2022-12-07T05:37:23;17.73;;;7.45;;
75990;SDS011;64673;52.276;10.560;2022-12-07T05:39:48;20.65;;;8.23;;
75990;SDS011;64673;52.276;10.560;2022-12-07T05:42:13;16.85;;;7.18;;
75990;SDS011;64673;52.276;10.560;2022-12-07T05:44:40;19.50;;;8.63;;
75990;SDS011;64673;52.276;10.560;2022-12-07T05:47:07;19.17;;;6.53;;
75990;SDS011;64673;52.276;10.560;2022-12-07T05:49:32;20.83;;;8.05;;
75990;SDS011;64673;52.276;10.560;2022-12-07T05:51:57;21.52;;;8.27;;
75990;SDS011;64673;52.276;10.560;2022-12-07T05:54:23;17.98;;;7.93;;
75990;SDS011;64673;52.276;10.560;2022-12-07T05:56:49;17.15;;;7.55;;
75990;SDS011;64673;52.276;10.560;2022-12-07T05:59:14;19.38;;;7.70;;
75990;SDS011;64673;52.276;10.560;2022-12-07T06:01:50;17.30;;;7.22;;
75990;SDS011;64673;52.276;10.560;2022-12-07T06:04:15;16.77;;;6.85;;
75990;SDS011;64673;52.276;10.560;2022-12-07T06:06:41;18.35;;;7.25;;
75990;SDS011;64673;52.276;10.560;2022-12-07T06:09:06;18.95;;;7.53;;
75990;SDS011;64673;52.276;10.560;2022-12-07T06:11:32;18.67;;;6.50;;
75990;SDS011;64673;52.276;10.560;2022-12-07T06:14:16;16.23;;;5.97;;
75990;SDS011;64673;52.276;10.560;2022-12-07T06:16:41;21.67;;;7.30;;
75990;SDS011;64673;52.276;10.560;2022-12-07T06:19:06;20.52;;;6.85;;
75990;SDS011;64673;52.276;10.560;2022-12-07T06:21:32;17.23;;;6.43;;
75990;SDS011;64673;52.276;10.560;2022-12-07T06:23:57;15.40;;;6.32;;
75990;SDS011;64673;52.276;10.560;2022-12-07T06:26:22;12.23;;;4.90;;
75990;SDS011;64673;52.276;10.560;2022-12-07T06:28:48;11.63;;;3.97;;
75990;SDS011;64673;52.276;10.560;2022-12-07T06:31:13;13.27;;;3.92;;
75990;SDS011;64673;52.276;10.560;2022-12-07T06:33:38;5.88;;;2.45;;
75990;SDS011;64673;52.276;10.560;2022-12-07T06:36:04;10.30;;;3.30;;
75990;SDS011;64673;52.276;10.560;2022-12-07T06:38:29;7.00;;;1.92;;
75990;SDS011;64673;52.276;10.560;2022-12-07T06:40:55;4.93;;;2.00;;
75990;SDS011;64673;52.276;10.560;2022-12-07T06:43:20;6.57;;;2.00;;
75990;SDS011;64673;52.276;10.560;2022-12-07T06:45:46;4.65;;;2.15;;
75990;SDS011;64673;52.276;10.560;2022-12-07T06:48:11;8.70;;;3.22;;
75990;SDS011;64673;52.276;10.560;2022-12-07T06:50:37;8.45;;;3.53;;
75990;SDS011;64673;52.276;10.560;2022-12-07T06:53:02;14.73;;;4.55;;
75990;SDS011;64673;52.276;10.560;2022-12-07T06:55:27;15.85;;;4.97;;
75990;SDS011;64673;52.276;10.560;2022-12-07T06:57:53;12.45;;;4.30;;
75990;SDS011;64673;52.276;10.560;2022-12-07T07:00:18;18.50;;;6.13;;
75990;SDS011;64673;52.276;10.560;2022-12-07T07:02:44;19.23;;;6.88;;
75990;SDS011;64673;52.276;10.560;2022-12-07T07:05:09;16.63;;;6.28;;
75990;SDS011;64673;52.276;10.560;2022-12-07T07:07:34;18.27;;;6.72;;
75990;SDS011;64673;52.276;10.560;2022-12-07T07:10:00;18.17;;;6.07;;
75990;SDS011;64673;52.276;10.560;2022-12-07T07:12:25;18.27;;;7.00;;
75990;SDS011;64673;52.276;10.560;2022-12-07T07:14:50;17.48;;;6.85;;
75990;SDS011;64673;52.276;10.560;2022-12-07T07:17:16;20.77;;;7.97;;
75990;SDS011;64673;52.276;10.560;2022-12-07T07:19:41;23.30;;;8.50;;
75990;SDS011;64673;52.276;10.560;2022-12-07T07:22:06;25.88;;;8.23;;
75990;SDS011;64673;52.276;10.560;2022-12-07T07:24:32;23.25;;;8.73;;
75990;SDS011;64673;52.276;10.560;2022-12-07T07:26:57;23.48;;;8.45;;
75990;SDS011;64673;52.276;10.560;2022-12-07T07:29:22;18.48;;;7.43;;
75990;SDS011;64673;52.276;10.560;2022-12-07T07:31:48;20.67;;;7.70;;
75990;SDS011;64673;52.276;10.560;2022-12-07T07:34:13;24.35;;;8.68;;
75990;SDS011;64673;52.276;10.560;2022-12-07T07:36:38;24.45;;;8.43;;
75990;SDS011;64673;52.276;10.560;2022-12-07T07:39:04;21.17;;;8.10;;
75990;SDS011;64673;52.276;10.560;2022-12-07T07:41:30;23.10;;;8.57;;
75990;SDS011;64673;52.276;10.560;2022-12-07T07:43:55;24.98;;;9.50;;
75990;SDS011;64673;52.276;10.560;2022-12-07T07:46:20;24.73;;;8.80;;
75990;SDS011;64673;52.276;10.560;2022-12-07T07:48:46;29.08;;;9.38;;
75990;SDS011;64673;52.276;10.560;2022-12-07T07:51:11;23.55;;;9.00;;
75990;SDS011;64673;52.276;10.560;2022-12-07T07:53:36;19.25;;;7.53;;
75990;SDS011;64673;52.276;10.560;2022-12-07T07:56:02;21.55;;;8.57;;
75990;SDS011;64673;52.276;10.560;2022-12-07T07:58:27;26.73;;;8.85;;
75990;SDS011;64673;52.276;10.560;2022-12-07T08:00:52;26.67;;;9.30;;
75990;SDS011;64673;52.276;10.560;2022-12-07T08:03:21;27.65;;;10.35;;
75990;SDS011;64673;52.276;10.560;2022-12-07T08:05:46;26.80;;;9.00;;
75990;SDS011;64673;52.276;10.560;2022-12-07T08:08:11;27.23;;;9.82;;
75990;SDS011;64673;52.276;10.560;2022-12-07T08:10:39;28.13;;;9.02;;
75990;SDS011;64673;52.276;10.560;2022-12-07T08:13:04;23.67;;;9.38;;
75990;SDS011;64673;52.276;10.560;2022-12-07T08:15:37;21.98;;;8.48;;
75990;SDS011;64673;52.276;10.560;2022-12-07T08:18:04;16.40;;;7.00;;
75990;SDS011;64673;52.276;10.560;2022-12-07T08:20:30;21.35;;;8.32;;
75990;SDS011;64673;52.276;10.560;2022-12-07T08:22:56;17.85;;;6.63;;
75990;SDS011;64673;52.276;10.560;2022-12-07T08:25:21;17.98;;;6.05;;
75990;SDS011;64673;52.276;10.560;2022-12-07T08:27:47;15.52;;;6.20;;
75990;SDS011;64673;52.276;10.560;2022-12-07T08:30:13;12.57;;;5.45;;
75990;SDS011;64673;52.276;10.560;2022-12-07T08:32:38;16.63;;;6.07;;
75990;SDS011;64673;52.276;10.560;2022-12-07T08:35:04;11.75;;;5.15;;
75990;SDS011;64673;52.276;10.560;2022-12-07T08:37:30;15.20;;;4.80;;
75990;SDS011;64673;52.276;10.560;2022-12-07T08:39:56;16.48;;;5.28;;
75990;SDS011;64673;52.276;10.560;2022-12-07T08:42:22;12.80;;;4.80;;
75990;SDS011;64673;52.276;10.560;2022-12-07T08:44:52;10.52;;;4.72;;
75990;SDS011;64673;52.276;10.560;2022-12-07T08:47:17;16.58;;;5.63;;
75990;SDS011;64673;52.276;10.560;2022-12-07T08:49:44;16.38;;;6.25;;
75990;SDS011;64673;52.276;10.560;2022-12-07T08:52:12;15.65;;;5.50;;
75990;SDS011;64673;52.276;10.560;2022-12-07T08:54:38;17.55;;;6.35;;
75990;SDS011;64673;52.276;10.560;2022-12-07T08:57:05;13.85;;;5.55;;
75990;SDS011;64673;52.276;10.560;2022-12-07T08:59:31;11.00;;;5.38;;
75990;SDS011;64673;52.276;10.560;2022-12-07T09:01:59;13.05;;;5.00;;
75990;SDS011;64673;52.276;10.560;2022-12-07T09:04:24;13.18;;;5.68;;
75990;SDS011;64673;52.276;10.560;2022-12-07T09:06:50;16.42;;;6.07;;
75990;SDS011;64673;52.276;10.560;2022-12-07T09:09:15;15.68;;;5.78;;
75990;SDS011;64673;52.276;10.560;2022-12-07T09:11:40;11.18;;;5.20;;
75990;SDS011;64673;52.276;10.560;2022-12-07T09:14:06;14.63;;;4.60;;
75990;SDS011;64673;52.276;10.560;2022-12-07T09:16:31;12.48;;;4.97;;
75990;SDS011;64673;52.276;10.560;2022-12-07T09:18:56;14.07;;;5.53;;
75990;SDS011;64673;52.276;10.560;2022-12-07T09:21:22;11.52;;;4.45;;
75990;SDS011;64673;52.276;10.560;2022-12-07T09:23:47;13.65;;;6.45;;
75990;SDS011;64673;52.276;10.560;2022-12-07T09:26:12;12.93;;;5.60;;
75990;SDS011;64673;52.276;10.560;2022-12-07T09:28:38;17.05;;;6.18;;
75990;SDS011;64673;52.276;10.560;2022-12-07T09:31:04;20.52;;;7.20;;
75990;SDS011;64673;52.276;10.560;2022-12-07T09:33:29;15.48;;;6.57;;
75990;SDS011;64673;52.276;10.560;2022-12-07T09:35:54;13.40;;;5.90;;
75990;SDS011;64673;52.276;10.560;2022-12-07T09:38:20;15.48;;;5.88;;
75990;SDS011;64673;52.276;10.560;2022-12-07T09:40:46;13.50;;;5.93;;
75990;SDS011;64673;52.276;10.560;2022-12-07T09:43:17;18.15;;;6.55;;
75990;SDS011;64673;52.276;10.560;2022-12-07T09:45:44;16.55;;;7.30;;
75990;SDS011;64673;52.276;10.560;2022-12-07T09:48:15;19.40;;;7.30;;
75990;SDS011;64673;52.276;10.560;2022-12-07T09:50:43;18.08;;;6.55;;
75990;SDS011;64673;52.276;10.560;2022-12-07T09:53:16;18.00;;;7.47;;
75990;SDS011;64673;52.276;10.560;2022-12-07T09:55:49;15.55;;;6.35;;
75990;SDS011;64673;52.276;10.560;2022-12-07T09:58:24;13.45;;;5.75;;
75990;SDS011;64673;52.276;10.560;2022-12-07T10:00:57;13.43;;;5.65;;
75990;SDS011;64673;52.276;10.560;2022-12-07T10:03:26;10.75;;;5.60;;
75990;SDS011;64673;52.276;10.560;2022-12-07T10:05:53;16.10;;;5.85;;
75990;SDS011;64673;52.276;10.560;2022-12-07T10:08:20;9.30;;;4.28;;
75990;SDS011;64673;52.276;10.560;2022-12-07T10:10:46;14.50;;;5.32;;
75990;SDS011;64673;52.276;10.560;2022-12-07T10:13:20;9.52;;;4.47;;
75990;SDS011;64673;52.276;10.560;2022-12-07T10:16:01;17.08;;;4.80;;
75990;SDS011;64673;52.276;10.560;2022-12-07T10:23:42;12.25;;;4.80;;
75990;SDS011;64673;52.276;10.560;2022-12-07T10:29:13;17.85;;;6.30;;
75990;SDS011;64673;52.276;10.560;2022-12-07T10:31:39;12.13;;;5.72;;
75990;SDS011;64673;52.276;10.560;2022-12-07T10:34:22;15.40;;;6.25;;
75990;SDS011;64673;52.276;10.560;2022-12-07T10:36:53;10.80;;;4.57;;
75990;SDS011;64673;52.276;10.560;2022-12-07T10:42:25;12.15;;;4.47;;
75990;SDS011;64673;52.276;10.560;2022-12-07T10:45:06;12.68;;;4.40;;
75990;SDS011;64673;52.276;10.560;2022-12-07T10:47:36;12.50;;;4.50;;
75990;SDS011;64673;52.276;10.560;2022-12-07T11:04:18;12.43;;;4.80;;
75990;SDS011;64673;52.276;10.560;2022-12-07T11:07:01;12.95;;;4.80;;
75990;SDS011;64673;52.276;10.560;2022-12-07T11:15:23;9.75;;;3.92;;
75990;SDS011;64673;52.276;10.560;2022-12-07T11:29:18;7.53;;;2.85;;
75990;SDS011;64673;52.276;10.560;2022-12-07T11:37:02;7.57;;;3.60;;
75990;SDS011;64673;52.276;10.560;2022-12-07T11:39:39;8.25;;;3.42;;
75990;SDS011;64673;52.276;10.560;2022-12-07T11:42:21;6.47;;;2.72;;
75990;SDS011;64673;52.276;10.560;2022-12-07T11:53:01;5.13;;;1.77;;
75990;SDS011;64673;52.276;10.560;2022-12-07T11:56:09;6.88;;;2.22;;
75990;SDS011;64673;52.276;10.560;2022-12-07T12:03:30;16.73;;;2.50;;
75990;SDS011;64673;52.276;10.560;2022-12-07T12:06:01;5.78;;;1.73;;
75990;SDS011;64673;52.276;10.560;2022-12-07T12:11:19;5.40;;;2.28;;
75990;SDS011;64673;52.276;10.560;2022-12-07T12:13:54;5.15;;;2.25;;
75990;SDS011;64673;52.276;10.560;2022-12-07T12:16:37;7.03;;;2.80;;
75990;SDS011;64673;52.276;10.560;2022-12-07T12:19:08;4.82;;;2.00;;
75990;SDS011;64673;52.276;10.560;2022-12-07T12:21:46;5.60;;;2.47;;
75990;SDS011;64673;52.276;10.560;2022-12-07T12:24:18;4.68;;;2.20;;
75990;SDS011;64673;52.276;10.560;2022-12-07T12:26:52;5.05;;;1.98;;
75990;SDS011;64673;52.276;10.560;2022-12-07T12:29:28;6.15;;;1.95;;
75990;SDS011;64673;52.276;10.560;2022-12-07T12:32:05;4.80;;;2.22;;
75990;SDS011;64673;52.276;10.560;2022-12-07T12:34:41;10.00;;;2.78;;
75990;SDS011;64673;52.276;10.560;2022-12-07T12:37:38;10.70;;;2.67;;
75990;SDS011;64673;52.276;10.560;2022-12-07T12:42:43;9.23;;;2.70;;
75990;SDS011;64673;52.276;10.560;2022-12-07T12:50:32;3.47;;;1.75;;
75990;SDS011;64673;52.276;10.560;2022-12-07T12:53:01;6.53;;;2.33;;
75990;SDS011;64673;52.276;10.560;2022-12-07T13:00:48;5.60;;;2.00;;
75990;SDS011;64673;52.276;10.560;2022-12-07T13:03:56;5.40;;;2.45;;
75990;SDS011;64673;52.276;10.560;2022-12-07T13:08:52;5.53;;;1.90;;
75990;SDS011;64673;52.276;10.560;2022-12-07T13:11:26;2.65;;;1.50;;
75990;SDS011;64673;52.276;10.560;2022-12-07T13:13:56;3.50;;;1.38;;
75990;SDS011;64673;52.276;10.560;2022-12-07T13:16:57;4.88;;;1.45;;
75990;SDS011;64673;52.276;10.560;2022-12-07T13:20:05;5.10;;;1.23;;
75990;SDS011;64673;52.276;10.560;2022-12-07T13:27:39;3.55;;;1.17;;
75990;SDS011;64673;52.276;10.560;2022-12-07T13:30:12;2.75;;;1.30;;
75990;SDS011;64673;52.276;10.560;2022-12-07T13:32:40;3.67;;;2.00;;
75990;SDS011;64673;52.276;10.560;2022-12-07T13:37:56;4.15;;;1.70;;
75990;SDS011;64673;52.276;10.560;2022-12-07T13:40:22;4.20;;;1.55;;
75990;SDS011;64673;52.276;10.560;2022-12-07T13:42:56;6.68;;;2.45;;
75990;SDS011;64673;52.276;10.560;2022-12-07T13:45:30;7.03;;;2.50;;
75990;SDS011;64673;52.276;10.560;2022-12-07T13:48:27;7.78;;;2.40;;
75990;SDS011;64673;52.276;10.560;2022-12-07T13:50:57;6.22;;;3.00;;
75990;SDS011;64673;52.276;10.560;2022-12-07T13:53:24;6.82;;;2.45;;
75990;SDS011;64673;52.276;10.560;2022-12-07T13:55:52;4.43;;;1.83;;
75990;SDS011;64673;52.276;10.560;2022-12-07T13:58:18;4.68;;;1.83;;
75990;SDS011;64673;52.276;10.560;2022-12-07T14:00:43;4.30;;;1.98;;
75990;SDS011;64673;52.276;10.560;2022-12-07T14:05:38;3.10;;;1.42;;
75990;SDS011;64673;52.276;10.560;2022-12-07T14:13:33;4.80;;;1.60;;
75990;SDS011;64673;52.276;10.560;2022-12-07T14:16:01;3.55;;;1.17;;
75990;SDS011;64673;52.276;10.560;2022-12-07T14:18:37;3.00;;;1.48;;
75990;SDS011;64673;52.276;10.560;2022-12-07T14:21:05;7.32;;;1.88;;
75990;SDS011;64673;52.276;10.560;2022-12-07T14:23:34;5.00;;;2.30;;
75990;SDS011;64673;52.276;10.560;2022-12-07T14:26:15;5.30;;;1.85;;
75990;SDS011;64673;52.276;10.560;2022-12-07T14:28:44;5.38;;;1.92;;
75990;SDS011;64673;52.276;10.560;2022-12-07T14:31:11;4.43;;;1.83;;
75990;SDS011;64673;52.276;10.560;2022-12-07T14:33:39;7.13;;;2.10;;
75990;SDS011;64673;52.276;10.560;2022-12-07T14:36:05;4.95;;;1.98;;
75990;SDS011;64673;52.276;10.560;2022-12-07T14:38:30;8.00;;;1.90;;
75990;SDS011;64673;52.276;10.560;2022-12-07T14:40:56;7.32;;;2.05;;
75990;SDS011;64673;52.276;10.560;2022-12-07T14:43:44;7.28;;;2.00;;
75990;SDS011;64673;52.276;10.560;2022-12-07T14:46:09;6.95;;;2.45;;
75990;SDS011;64673;52.276;10.560;2022-12-07T14:48:35;6.10;;;2.00;;
75990;SDS011;64673;52.276;10.560;2022-12-07T14:51:00;4.75;;;2.05;;
75990;SDS011;64673;52.276;10.560;2022-12-07T14:53:29;4.90;;;2.10;;
75990;SDS011;64673;52.276;10.560;2022-12-07T14:56:00;5.32;;;1.63;;
75990;SDS011;64673;52.276;10.560;2022-12-07T14:58:27;6.63;;;1.88;;
75990;SDS011;64673;52.276;10.560;2022-12-07T15:00:52;6.70;;;1.80;;
75990;SDS011;64673;52.276;10.560;2022-12-07T15:03:17;3.72;;;1.50;;
75990;SDS011;64673;52.276;10.560;2022-12-07T15:05:43;7.00;;;1.60;;
75990;SDS011;64673;52.276;10.560;2022-12-07T15:08:10;2.85;;;1.20;;
75990;SDS011;64673;52.276;10.560;2022-12-07T15:10:37;4.95;;;1.45;;
75990;SDS011;64673;52.276;10.560;2022-12-07T15:13:05;2.25;;;1.10;;
75990;SDS011;64673;52.276;10.560;2022-12-07T15:15:50;3.78;;;1.60;;
75990;SDS011;64673;52.276;10.560;2022-12-07T15:18:17;5.07;;;1.30;;
75990;SDS011;64673;52.276;10.560;2022-12-07T15:20:43;5.28;;;1.45;;
75990;SDS011;64673;52.276;10.560;2022-12-07T15:23:09;7.72;;;1.58;;
75990;SDS011;64673;52.276;10.560;2022-12-07T15:25:35;6.93;;;1.48;;
75990;SDS011;64673;52.276;10.560;2022-12-07T15:28:00;3.38;;;1.58;;
75990;SDS011;64673;52.276;10.560;2022-12-07T15:30:26;3.13;;;1.50;;
75990;SDS011;64673;52.276;10.560;2022-12-07T15:32:51;4.60;;;1.38;;
75990;SDS011;64673;52.276;10.560;2022-12-07T15:35:17;5.15;;;1.50;;
75990;SDS011;64673;52.276;10.560;2022-12-07T15:37:43;6.15;;;1.48;;
75990;SDS011;64673;52.276;10.560;2022-12-07T15:40:08;6.13;;;1.70;;
75990;SDS011;64673;52.276;10.560;2022-12-07T15:42:35;4.28;;;1.27;;
75990;SDS011;64673;52.276;10.560;2022-12-07T15:45:00;4.25;;;1.20;;
75990;SDS011;64673;52.276;10.560;2022-12-07T15:47:35;5.60;;;1.70;;
75990;SDS011;64673;52.276;10.560;2022-12-07T15:50:03;7.95;;;1.60;;
75990;SDS011;64673;52.276;10.560;2022-12-07T15:52:30;6.18;;;1.58;;
75990;SDS011;64673;52.276;10.560;2022-12-07T15:54:56;6.75;;;1.92;;
75990;SDS011;64673;52.276;10.560;2022-12-07T15:57:21;6.90;;;1.70;;
75990;SDS011;64673;52.276;10.560;2022-12-07T15:59:47;7.60;;;1.90;;
75990;SDS011;64673;52.276;10.560;2022-12-07T16:02:12;5.45;;;1.90;;
75990;SDS011;64673;52.276;10.560;2022-12-07T16:04:37;5.30;;;1.25;;
75990;SDS011;64673;52.276;10.560;2022-12-07T16:07:03;6.38;;;1.60;;
75990;SDS011;64673;52.276;10.560;2022-12-07T16:09:28;6.20;;;1.88;;
75990;SDS011;64673;52.276;10.560;2022-12-07T16:11:54;5.65;;;1.60;;
75990;SDS011;64673;52.276;10.560;2022-12-07T16:14:19;4.57;;;1.65;;
75990;SDS011;64673;52.276;10.560;2022-12-07T16:16:45;5.28;;;1.27;;
75990;SDS011;64673;52.276;10.560;2022-12-07T16:19:10;3.60;;;1.30;;
75990;SDS011;64673;52.276;10.560;2022-12-07T16:21:36;6.03;;;1.58;;
75990;SDS011;64673;52.276;10.560;2022-12-07T16:24:01;5.03;;;1.30;;
75990;SDS011;64673;52.276;10.560;2022-12-07T16:26:27;4.53;;;0.90;;
75990;SDS011;64673;52.276;10.560;2022-12-07T16:28:53;2.47;;;0.85;;
75990;SDS011;64673;52.276;10.560;2022-12-07T16:31:20;2.55;;;0.93;;
75990;SDS011;64673;52.276;10.560;2022-12-07T16:33:47;3.05;;;0.60;;
75990;SDS011;64673;52.276;10.560;2022-12-07T16:36:14;1.67;;;0.80;;
75990;SDS011;64673;52.276;10.560;2022-12-07T16:38:41;3.33;;;1.02;;
75990;SDS011;64673;52.276;10.560;2022-12-07T16:41:07;1.85;;;0.57;;